createdAt,value
2018-11-14T00:00:52.717Z,5.57
2018-11-14T00:03:20.901Z,4.97
2018-11-14T00:05:49.037Z,5.10
2018-11-14T00:08:17.193Z,4.20
2018-11-14T00:10:45.385Z,7.07
2018-11-14T00:13:13.536Z,5.40
2018-11-14T00:15:41.698Z,5.47
2018-11-14T00:18:09.945Z,6.07
2018-11-14T00:20:38.108Z,6.23
2018-11-14T00:23:06.311Z,6.17
2018-11-14T00:25:34.485Z,4.60
2018-11-14T00:28:03.063Z,6.63
2018-11-14T00:30:31.008Z,5.40
2018-11-14T00:32:59.176Z,6.10
2018-11-14T00:35:27.337Z,6.23
2018-11-14T00:37:55.513Z,5.87
2018-11-14T00:40:23.679Z,5.90
2018-11-14T00:42:51.834Z,6.30
2018-11-14T00:45:21.112Z,6.53
2018-11-14T00:47:49.933Z,6.30
2018-11-14T00:50:18.820Z,6.07
2018-11-14T00:52:47.208Z,5.80
2018-11-14T00:55:19.511Z,7.23
2018-11-14T00:57:48.607Z,6.20
2018-11-14T01:00:18.245Z,5.20
2018-11-14T01:02:46.495Z,6.30
2018-11-14T01:05:15.323Z,5.30
2018-11-14T01:07:43.476Z,5.57
2018-11-14T01:10:14.248Z,4.70
2018-11-14T01:12:42.850Z,7.20
2018-11-14T01:15:13.978Z,6.03
2018-11-14T01:17:42.502Z,6.70
2018-11-14T01:20:12.800Z,6.80
2018-11-14T01:22:41.745Z,5.77
2018-11-14T01:25:11.044Z,5.57
2018-11-14T01:27:39.194Z,6.60
2018-11-14T01:30:13.076Z,5.50
2018-11-14T01:32:41.357Z,6.33
2018-11-14T01:35:09.689Z,6.33
2018-11-14T01:37:37.885Z,6.73
2018-11-14T01:40:10.543Z,6.80
2018-11-14T01:42:38.800Z,5.73
2018-11-14T01:45:08.813Z,7.17
2018-11-14T01:47:37.008Z,6.53
2018-11-14T01:50:15.651Z,6.83
2018-11-14T01:52:43.905Z,6.43
2018-11-14T01:55:13.560Z,6.78
2018-11-14T01:57:41.701Z,7.80
2018-11-14T02:00:12.293Z,7.40
2018-11-14T02:02:40.809Z,8.33
2018-11-14T02:05:09.579Z,8.77
2018-11-14T02:07:37.779Z,8.50
2018-11-14T02:10:08.825Z,8.20
2018-11-14T02:12:37.561Z,8.70
2018-11-14T02:15:07.377Z,8.50
2018-11-14T02:17:35.537Z,9.73
2018-11-14T02:20:04.020Z,9.00
2018-11-14T02:22:32.224Z,8.80
2018-11-14T02:25:00.398Z,8.63
2018-11-14T02:27:28.598Z,8.23
2018-11-14T02:29:56.877Z,10.50
2018-11-14T02:32:25.155Z,10.37
2018-11-14T02:34:53.342Z,9.43
2018-11-14T02:37:21.685Z,10.37
2018-11-14T02:39:49.880Z,10.50
2018-11-14T02:42:18.030Z,10.47
2018-11-14T02:44:46.185Z,9.17
2018-11-14T02:47:14.401Z,10.93
2018-11-14T02:49:42.609Z,10.63
2018-11-14T02:52:10.829Z,9.80
2018-11-14T02:54:39.002Z,9.67
2018-11-14T02:59:41.794Z,10.63
2018-11-14T03:02:09.985Z,9.90
2018-11-14T03:04:38.142Z,10.83
2018-11-14T03:07:06.313Z,9.70
2018-11-14T03:09:34.553Z,11.70
2018-11-14T03:12:02.739Z,9.30
2018-11-14T03:14:30.938Z,10.60
2018-11-14T03:16:59.082Z,10.05
2018-11-14T03:19:27.305Z,10.80
2018-11-14T03:21:55.461Z,10.23
2018-11-14T03:24:23.653Z,10.70
2018-11-14T03:26:51.812Z,10.33
2018-11-14T03:29:19.960Z,9.83
2018-11-14T03:31:48.210Z,10.80
2018-11-14T03:34:16.408Z,9.87
2018-11-14T03:36:44.555Z,11.40
2018-11-14T03:39:12.730Z,9.93
2018-11-14T03:41:40.929Z,11.97
2018-11-14T03:44:09.110Z,11.00
2018-11-14T03:46:37.275Z,12.37
2018-11-14T03:49:05.453Z,11.47
2018-11-14T03:51:33.776Z,11.00
2018-11-14T03:54:01.913Z,11.70
2018-11-14T03:56:30.081Z,11.20
2018-11-14T03:58:58.275Z,10.50
2018-11-14T04:01:26.441Z,10.30
2018-11-14T04:03:54.768Z,11.37
2018-11-14T04:06:22.924Z,10.53
2018-11-14T04:08:51.092Z,11.68
2018-11-14T04:11:19.266Z,10.13
2018-11-14T04:13:47.454Z,12.00
2018-11-14T04:16:15.619Z,11.80
2018-11-14T04:18:43.776Z,11.73
2018-11-14T04:21:11.949Z,10.73
2018-11-14T04:23:45.660Z,11.13
2018-11-14T04:26:13.910Z,11.78
2018-11-14T04:28:42.085Z,11.33
2018-11-14T04:31:10.241Z,10.20
2018-11-14T04:33:38.412Z,10.70
2018-11-14T04:36:06.584Z,10.53
2018-11-14T04:38:34.758Z,9.68
2018-11-14T04:41:02.946Z,10.80
2018-11-14T04:43:31.186Z,8.47
2018-11-14T04:45:59.331Z,7.23
2018-11-14T04:48:27.480Z,8.40
2018-11-14T04:50:55.647Z,8.97
2018-11-14T04:53:23.852Z,8.65
2018-11-14T04:55:52.033Z,8.30
2018-11-14T04:58:20.224Z,8.67
2018-11-14T05:00:48.406Z,7.23
2018-11-14T05:03:16.769Z,8.33
2018-11-14T05:05:44.924Z,10.87
2018-11-14T05:08:13.096Z,11.73
2018-11-14T05:10:41.281Z,9.47
2018-11-14T05:13:09.544Z,14.27
2018-11-14T05:15:37.634Z,12.70
2018-11-14T05:18:06.016Z,13.85
2018-11-14T05:20:34.173Z,14.90
2018-11-14T05:23:02.328Z,14.27
2018-11-14T05:25:30.496Z,14.25
2018-11-14T05:27:58.670Z,14.90
2018-11-14T05:30:26.834Z,15.80
2018-11-14T05:32:55.017Z,14.43
2018-11-14T05:35:23.194Z,16.00
2018-11-14T05:37:51.339Z,15.57
2018-11-14T05:40:20.811Z,15.87
2018-11-14T05:42:49.572Z,15.27
2018-11-14T05:45:19.281Z,17.37
2018-11-14T05:47:47.525Z,15.65
2018-11-14T05:50:16.796Z,14.77
2018-11-14T05:52:44.956Z,17.13
2018-11-14T05:55:13.786Z,18.40
2018-11-14T05:57:41.944Z,18.00
2018-11-14T06:00:23.097Z,18.12
2018-11-14T06:02:51.308Z,17.07
2018-11-14T06:05:19.508Z,18.00
2018-11-14T06:07:47.638Z,17.80
2018-11-14T06:10:15.809Z,18.27
2018-11-14T06:12:44.015Z,17.47
2018-11-14T06:15:15.480Z,18.03
2018-11-14T06:17:44.586Z,18.60
2018-11-14T06:20:16.056Z,19.37
2018-11-14T06:22:45.257Z,18.50
2018-11-14T06:25:23.389Z,17.70
2018-11-14T06:27:52.684Z,16.67
2018-11-14T06:30:21.173Z,17.17
2018-11-14T06:32:49.721Z,16.90
2018-11-14T06:35:18.477Z,17.25
2018-11-14T06:37:47.033Z,16.30
2018-11-14T06:40:15.229Z,19.00
2018-11-14T06:42:43.484Z,16.77
2018-11-14T06:45:13.477Z,20.68
2018-11-14T06:47:43.184Z,23.00
2018-11-14T06:50:12.197Z,18.52
2018-11-14T06:52:40.886Z,15.60
2018-11-14T06:55:10.813Z,17.50
2018-11-14T06:57:39.073Z,18.80
2018-11-14T07:00:09.546Z,15.53
2018-11-14T07:02:38.335Z,15.40
2018-11-14T07:05:08.041Z,16.97
2018-11-14T07:07:36.290Z,16.93
2018-11-14T07:10:04.555Z,15.47
2018-11-14T07:12:32.764Z,17.00
2018-11-14T07:15:01.001Z,17.42
2018-11-14T07:17:29.185Z,17.62
2018-11-14T07:19:57.505Z,20.05
2018-11-14T07:22:25.700Z,16.27
2018-11-14T07:24:53.866Z,15.70
2018-11-14T07:27:22.096Z,18.65
2018-11-14T07:29:50.441Z,18.40
2018-11-14T07:32:18.751Z,19.87
2018-11-14T07:34:46.888Z,19.80
2018-11-14T07:37:15.181Z,19.97
2018-11-14T07:39:43.389Z,17.85
2018-11-14T07:42:11.689Z,19.10
2018-11-14T07:44:39.932Z,17.03
2018-11-14T07:47:08.132Z,19.40
2018-11-14T07:49:36.336Z,22.10
2018-11-14T07:52:04.696Z,18.00
2018-11-14T07:54:33.139Z,21.83
2018-11-14T07:57:01.258Z,21.60
2018-11-14T07:59:29.427Z,20.73
2018-11-14T08:01:57.692Z,19.97
2018-11-14T08:04:25.856Z,21.53
2018-11-14T08:06:54.237Z,17.20
2018-11-14T08:09:22.683Z,16.27
2018-11-14T08:11:50.868Z,16.27
2018-11-14T08:14:19.404Z,16.37
2018-11-14T08:16:47.569Z,17.37
2018-11-14T08:19:15.711Z,15.70
2018-11-14T08:21:43.849Z,14.03
2018-11-14T08:24:12.008Z,14.77
2018-11-14T08:26:40.188Z,16.17
2018-11-14T08:29:08.392Z,18.03
2018-11-14T08:31:36.568Z,17.70
2018-11-14T08:34:04.941Z,18.37
2018-11-14T08:36:33.133Z,17.23
2018-11-14T08:39:01.294Z,19.80
2018-11-14T08:41:29.457Z,16.70
2018-11-14T08:43:57.700Z,19.93
2018-11-14T08:46:25.845Z,16.57
2018-11-14T08:48:54.009Z,15.97
2018-11-14T08:51:22.214Z,16.93
2018-11-14T08:53:50.347Z,18.67
2018-11-14T08:56:18.508Z,19.17
2018-11-14T08:58:46.686Z,15.90
2018-11-14T09:01:14.845Z,18.03
2018-11-14T09:03:43.036Z,16.37
2018-11-14T09:06:11.224Z,19.70
2018-11-14T09:08:39.383Z,17.47
2018-11-14T09:11:07.667Z,18.37
2018-11-14T09:13:35.748Z,17.63
2018-11-14T09:16:03.889Z,19.80
2018-11-14T09:18:32.117Z,17.67
2018-11-14T09:21:00.214Z,18.60
2018-11-14T09:23:28.361Z,17.50
2018-11-14T09:25:56.570Z,15.07
2018-11-14T09:28:24.747Z,15.60
2018-11-14T09:30:52.928Z,17.80
2018-11-14T09:33:21.230Z,14.03
2018-11-14T09:35:49.377Z,18.70
2018-11-14T09:38:17.530Z,17.00
2018-11-14T09:40:45.738Z,15.27
2018-11-14T09:43:13.868Z,15.70
2018-11-14T09:45:42.063Z,18.00
2018-11-14T09:48:10.237Z,15.80
2018-11-14T09:50:38.448Z,18.40
2018-11-14T09:53:06.831Z,17.73
2018-11-14T09:55:34.965Z,18.63
2018-11-14T09:58:03.151Z,17.83
2018-11-14T10:00:32.620Z,19.17
2018-11-14T10:03:02.931Z,15.60
2018-11-14T10:05:31.013Z,16.30
2018-11-14T10:07:59.227Z,18.30
2018-11-14T10:10:27.353Z,16.33
2018-11-14T10:12:55.505Z,16.70
2018-11-14T10:15:24.346Z,18.37
2018-11-14T10:17:52.492Z,12.50
2018-11-14T10:20:21.945Z,15.30
2018-11-14T10:22:50.317Z,15.37
2018-11-14T10:25:18.722Z,17.90
2018-11-14T10:27:47.680Z,16.53
2018-11-14T10:30:21.453Z,16.67
2018-11-14T10:32:50.025Z,16.70
2018-11-14T10:35:18.361Z,17.20
2018-11-14T10:37:46.615Z,16.90
2018-11-14T10:40:17.450Z,16.83
2018-11-14T10:42:45.829Z,17.13
2018-11-14T10:45:21.416Z,16.10
2018-11-14T10:47:54.126Z,17.37
2018-11-14T10:50:23.677Z,16.03
2018-11-14T10:52:51.829Z,16.40
2018-11-14T10:55:20.526Z,17.27
2018-11-14T10:57:48.739Z,17.83
2018-11-14T11:00:27.636Z,16.80
2018-11-14T11:03:01.565Z,15.17
2018-11-14T11:05:35.230Z,15.00
2018-11-14T11:08:09.158Z,17.10
2018-11-14T11:10:42.564Z,15.77
2018-11-14T11:13:16.329Z,17.43
2018-11-14T11:15:50.227Z,18.37
2018-11-14T11:18:19.450Z,15.00
2018-11-14T11:20:47.905Z,17.80
2018-11-14T11:23:16.299Z,13.80
2018-11-14T11:25:44.468Z,14.50
2018-11-14T11:28:12.684Z,15.80
2018-11-14T11:30:40.891Z,14.63
2018-11-14T11:33:09.141Z,14.20
2018-11-14T11:35:37.317Z,13.50
2018-11-14T11:38:05.737Z,15.97
2018-11-14T11:40:34.245Z,16.60
2018-11-14T11:43:03.455Z,14.30
2018-11-14T11:45:32.009Z,13.43
2018-11-14T11:48:00.199Z,13.40
2018-11-14T11:50:28.662Z,12.30
2018-11-14T11:52:56.970Z,10.47
2018-11-14T11:55:25.111Z,11.70
2018-11-14T11:57:53.436Z,11.70
2018-11-14T12:00:21.804Z,10.97
2018-11-14T12:02:49.876Z,13.20
2018-11-14T12:05:18.043Z,11.30
2018-11-14T12:07:46.486Z,14.77
2018-11-14T12:10:15.169Z,12.70
2018-11-14T12:12:44.309Z,11.50
2018-11-14T12:15:13.259Z,11.93
2018-11-14T12:17:42.183Z,13.90
2018-11-14T12:20:11.931Z,12.07
2018-11-14T12:22:40.896Z,12.23
2018-11-14T12:25:10.950Z,11.47
2018-11-14T12:27:39.182Z,11.53
2018-11-14T12:30:09.849Z,12.07
2018-11-14T12:32:38.347Z,11.47
2018-11-14T12:35:07.689Z,14.33
2018-11-14T12:37:35.862Z,12.60
2018-11-14T12:40:04.141Z,12.17
2018-11-14T12:42:32.321Z,11.20
2018-11-14T12:45:00.477Z,10.70
2018-11-14T12:47:28.638Z,9.20
2018-11-14T12:49:56.814Z,10.37
2018-11-14T12:52:24.998Z,10.33
2018-11-14T12:54:53.105Z,11.20
2018-11-14T12:57:21.282Z,10.30
2018-11-14T12:59:49.552Z,10.07
2018-11-14T13:02:17.684Z,10.60
2018-11-14T13:04:45.849Z,10.67
2018-11-14T13:07:14.069Z,11.10
2018-11-14T13:09:42.230Z,13.30
2018-11-14T13:12:10.401Z,12.20
2018-11-14T13:14:38.579Z,12.43
2018-11-14T13:17:06.767Z,13.20
2018-11-14T13:19:34.998Z,12.83
2018-11-14T13:22:03.238Z,12.27
2018-11-14T13:24:31.385Z,12.10
2018-11-14T13:26:59.853Z,13.77
2018-11-14T13:29:28.229Z,13.70
2018-11-14T13:31:56.417Z,11.00
2018-11-14T13:34:24.849Z,11.50
2018-11-14T13:36:53.108Z,13.10
2018-11-14T13:39:21.249Z,11.73
2018-11-14T13:41:49.445Z,11.90
2018-11-14T13:44:17.576Z,11.10
2018-11-14T13:46:45.742Z,12.43
2018-11-14T13:49:14.178Z,11.47
2018-11-14T13:51:42.094Z,10.83
2018-11-14T13:54:10.250Z,13.00
2018-11-14T13:56:38.453Z,12.23
2018-11-14T13:59:06.665Z,10.90
2018-11-14T14:01:34.973Z,10.80
2018-11-14T14:04:03.107Z,10.10
2018-11-14T14:06:31.290Z,10.53
2018-11-14T14:08:59.421Z,10.50
2018-11-14T14:11:27.830Z,10.40
2018-11-14T14:14:01.393Z,11.47
2018-11-14T14:16:29.643Z,10.33
2018-11-14T14:18:57.725Z,11.67
2018-11-14T14:21:25.911Z,11.63
2018-11-14T14:23:54.174Z,10.20
2018-11-14T14:26:22.319Z,9.77
2018-11-14T14:28:50.517Z,9.67
2018-11-14T14:31:18.745Z,10.60
2018-11-14T14:33:46.953Z,10.30
2018-11-14T14:36:15.141Z,10.50
2018-11-14T14:38:43.312Z,11.13
2018-11-14T14:41:11.564Z,10.80
2018-11-14T14:43:39.804Z,11.10
2018-11-14T14:46:07.992Z,11.33
2018-11-14T14:48:36.268Z,12.37
2018-11-14T14:51:04.766Z,12.40
2018-11-14T14:53:32.983Z,14.30
2018-11-14T14:56:01.134Z,13.87
2018-11-14T14:58:29.339Z,14.60
2018-11-14T15:00:58.404Z,12.20
2018-11-14T15:03:26.613Z,12.77
2018-11-14T15:05:54.749Z,11.03
2018-11-14T15:08:22.923Z,13.23
2018-11-14T15:10:51.064Z,12.40
2018-11-14T15:13:25.790Z,12.40
2018-11-14T15:15:53.972Z,14.30
2018-11-14T15:18:22.121Z,13.53
2018-11-14T15:20:50.258Z,13.47
2018-11-14T15:23:18.423Z,13.57
2018-11-14T15:25:46.592Z,13.83
2018-11-14T15:28:14.873Z,13.53
2018-11-14T15:30:43.045Z,15.27
2018-11-14T15:33:11.248Z,15.90
2018-11-14T15:35:39.417Z,14.20
2018-11-14T15:38:07.619Z,14.37
2018-11-14T15:40:35.793Z,17.57
2018-11-14T15:43:03.977Z,14.73
2018-11-14T15:45:32.155Z,14.43
2018-11-14T15:48:00.402Z,14.27
2018-11-14T15:50:29.660Z,15.80
2018-11-14T15:52:58.451Z,15.03
2018-11-14T15:55:26.633Z,15.13
2018-11-14T15:57:54.936Z,17.43
2018-11-14T16:00:30.204Z,12.77
2018-11-14T16:02:58.375Z,16.60
2018-11-14T16:05:27.725Z,14.33
2018-11-14T16:07:57.098Z,15.93
2018-11-14T16:10:26.229Z,14.40
2018-11-14T16:12:54.400Z,14.70
2018-11-14T16:15:28.069Z,11.53
2018-11-14T16:17:56.237Z,10.70
2018-11-14T16:20:25.316Z,9.60
2018-11-14T16:22:53.496Z,7.27
2018-11-14T16:25:22.673Z,8.48
2018-11-14T16:27:52.148Z,6.30
2018-11-14T16:30:26.464Z,7.13
2018-11-14T16:32:55.882Z,7.77
2018-11-14T16:35:24.065Z,6.37
2018-11-14T16:37:52.264Z,5.70
2018-11-14T16:40:21.748Z,5.43
2018-11-14T16:42:50.754Z,6.47
2018-11-14T16:45:19.014Z,6.90
2018-11-14T16:47:47.163Z,5.73
2018-11-14T16:50:16.547Z,7.07
2018-11-14T16:52:44.708Z,12.53
2018-11-14T16:55:14.043Z,6.73
2018-11-14T16:57:43.069Z,7.40
2018-11-14T17:00:19.754Z,11.03
2018-11-14T17:02:48.082Z,9.03
2018-11-14T17:05:16.637Z,10.33
2018-11-14T17:07:44.823Z,9.63
2018-11-14T17:10:15.148Z,7.60
2018-11-14T17:12:44.181Z,9.27
2018-11-14T17:15:13.569Z,11.40
2018-11-14T17:17:41.797Z,9.53
2018-11-14T17:20:10.875Z,10.17
2018-11-14T17:22:39.381Z,13.90
2018-11-14T17:25:08.287Z,12.30
2018-11-14T17:27:36.490Z,11.07
2018-11-14T17:30:07.023Z,8.10
2018-11-14T17:32:35.205Z,10.10
2018-11-14T17:35:03.420Z,10.33
2018-11-14T17:37:31.651Z,11.03
2018-11-14T17:39:59.821Z,12.53
2018-11-14T17:42:28.157Z,12.30
2018-11-14T17:44:56.194Z,10.57
2018-11-14T17:47:24.438Z,11.22
2018-11-14T17:49:52.553Z,11.65
2018-11-14T17:52:20.721Z,11.97
2018-11-14T17:54:48.871Z,11.83
2018-11-14T17:57:17.113Z,10.53
2018-11-14T17:59:45.262Z,9.83
2018-11-14T18:02:13.441Z,9.57
2018-11-14T18:04:41.665Z,10.17
2018-11-14T18:07:09.871Z,9.77
2018-11-14T18:09:38.018Z,12.90
2018-11-14T18:12:06.190Z,12.27
2018-11-14T18:14:34.470Z,16.07
2018-11-14T18:17:02.580Z,14.20
2018-11-14T18:19:30.739Z,17.30
2018-11-14T18:21:58.905Z,15.80
2018-11-14T18:24:27.079Z,13.10
2018-11-14T18:26:55.244Z,15.50
2018-11-14T18:29:23.433Z,13.30
2018-11-14T18:31:51.589Z,23.30
2018-11-14T18:34:19.753Z,14.57
2018-11-14T18:36:47.925Z,13.00
2018-11-14T18:39:16.134Z,13.87
2018-11-14T18:41:44.853Z,13.97
2018-11-14T18:44:13.099Z,11.43
2018-11-14T18:46:41.243Z,12.83
2018-11-14T18:49:09.441Z,11.23
2018-11-14T18:51:37.590Z,11.70
2018-11-14T18:54:05.944Z,12.80
2018-11-14T18:56:34.136Z,11.50
2018-11-14T18:59:02.334Z,13.43
2018-11-14T19:01:30.553Z,13.10
2018-11-14T19:03:58.693Z,12.77
2018-11-14T19:06:26.872Z,12.30
2018-11-14T19:08:55.033Z,12.63
2018-11-14T19:11:23.173Z,12.60
2018-11-14T19:13:52.620Z,11.60
2018-11-14T19:16:20.885Z,14.63
2018-11-14T19:18:49.138Z,15.07
2018-11-14T19:21:17.726Z,11.60
2018-11-14T19:30:44.922Z,14.83
2018-11-14T19:33:13.052Z,14.73
2018-11-14T19:35:41.222Z,15.90
2018-11-14T19:38:09.352Z,15.50
2018-11-14T19:40:38.000Z,15.67
2018-11-14T19:43:07.892Z,14.13
2018-11-14T19:45:37.200Z,14.20
2018-11-14T19:48:05.719Z,81.30
2018-11-14T19:50:33.981Z,21.60
2018-11-14T19:53:02.427Z,15.67
2018-11-14T19:55:31.211Z,13.70
2018-11-14T19:58:00.637Z,14.10
2018-11-14T20:00:30.052Z,17.00
2018-11-14T20:02:58.241Z,14.80
2018-11-14T20:05:26.427Z,16.20
2018-11-14T20:07:54.701Z,15.00
2018-11-14T20:10:26.451Z,16.43
2018-11-14T20:12:54.698Z,16.90
2018-11-14T20:15:24.196Z,16.17
2018-11-14T20:17:52.514Z,17.23
2018-11-14T20:20:24.062Z,16.47
2018-11-14T20:22:52.239Z,17.47
2018-11-14T20:25:20.537Z,15.43
2018-11-14T20:27:48.916Z,14.43
2018-11-14T20:30:21.746Z,16.50
2018-11-14T20:32:50.323Z,16.20
2018-11-14T20:35:19.540Z,15.60
2018-11-14T20:37:47.703Z,19.37
2018-11-14T20:40:17.993Z,16.50
2018-11-14T20:42:46.786Z,14.13
2018-11-14T20:45:17.434Z,16.40
2018-11-14T20:47:45.644Z,16.27
2018-11-14T20:50:16.041Z,17.80
2018-11-14T20:52:45.073Z,15.17
2018-11-14T20:55:13.726Z,14.20
2018-11-14T20:57:42.452Z,15.43
2018-11-14T21:00:19.902Z,15.47
2018-11-14T21:02:48.087Z,14.73
2018-11-14T21:05:16.250Z,15.37
2018-11-14T21:07:44.624Z,15.30
2018-11-14T21:10:13.925Z,15.30
2018-11-14T21:12:42.785Z,16.97
2018-11-14T21:15:13.914Z,16.67
2018-11-14T21:17:42.481Z,15.23
2018-11-14T21:20:10.974Z,14.90
2018-11-14T21:22:39.584Z,14.53
2018-11-14T21:25:09.244Z,15.50
2018-11-14T21:27:37.447Z,16.00
2018-11-14T21:30:08.013Z,15.37
2018-11-14T21:32:36.219Z,15.30
2018-11-14T21:35:04.801Z,14.20
2018-11-14T21:37:32.970Z,14.27
2018-11-14T21:40:01.123Z,15.37
2018-11-14T21:42:29.287Z,15.10
2018-11-14T21:44:57.491Z,14.30
2018-11-14T21:47:31.141Z,14.90
2018-11-14T21:49:59.283Z,15.07
2018-11-14T21:52:27.441Z,14.43
2018-11-14T21:54:55.607Z,14.53
2018-11-14T21:57:23.769Z,14.57
2018-11-14T21:59:51.911Z,15.40
2018-11-14T22:02:20.078Z,14.07
2018-11-14T22:04:48.248Z,14.20
2018-11-14T22:07:16.440Z,14.10
2018-11-14T22:09:44.594Z,12.93
2018-11-14T22:12:12.779Z,12.77
2018-11-14T22:14:40.924Z,11.70
2018-11-14T22:17:09.082Z,13.23
2018-11-14T22:19:37.249Z,13.97
2018-11-14T22:22:05.658Z,12.00
2018-11-14T22:24:33.794Z,13.17
2018-11-14T22:27:01.944Z,13.80
2018-11-14T22:29:30.122Z,14.10
2018-11-14T22:31:58.283Z,12.97
2018-11-14T22:34:26.432Z,14.90
2018-11-14T22:36:54.622Z,11.00
2018-11-14T22:39:22.758Z,12.70
2018-11-14T22:41:51.002Z,20.47
2018-11-14T22:44:19.166Z,12.03
2018-11-14T22:46:47.315Z,13.17
2018-11-14T22:49:15.505Z,10.70
2018-11-14T22:51:43.638Z,11.70
2018-11-14T22:54:11.827Z,10.73
2018-11-14T22:56:39.955Z,13.43
2018-11-14T22:59:08.120Z,12.57
2018-11-14T23:01:36.317Z,11.77
2018-11-14T23:04:04.657Z,12.77
2018-11-14T23:06:32.805Z,13.50
2018-11-14T23:09:00.955Z,10.03
2018-11-14T23:11:29.132Z,11.93
2018-11-14T23:13:57.280Z,12.30
2018-11-14T23:16:25.436Z,11.17
2018-11-14T23:18:53.609Z,10.90
2018-11-14T23:21:21.760Z,10.73
2018-11-14T23:23:49.915Z,11.23
2018-11-14T23:26:18.066Z,12.23
2018-11-14T23:28:46.213Z,10.87
2018-11-14T23:31:14.349Z,12.20
2018-11-14T23:33:42.540Z,12.23
2018-11-14T23:36:10.744Z,13.03
2018-11-14T23:38:38.942Z,12.80
2018-11-14T23:41:07.110Z,13.27
2018-11-14T23:43:35.433Z,12.23
2018-11-14T23:46:03.592Z,12.00
2018-11-14T23:48:32.055Z,12.43
2018-11-14T23:51:00.233Z,11.87
2018-11-14T23:53:28.665Z,13.47
2018-11-14T23:55:56.836Z,13.10
2018-11-14T23:58:25.005Z,11.40
